createdAt,value
2023-02-11T00:03:29.915Z,102051.22
2023-02-11T00:07:32.988Z,102045.13
2023-02-11T00:11:34.706Z,102031.16
2023-02-11T00:15:37.087Z,102026.78
2023-02-11T00:19:38.616Z,102023.28
2023-02-11T00:23:40.652Z,102025.94
2023-02-11T00:27:42.181Z,102025.03
2023-02-11T00:31:43.860Z,102014.56
2023-02-11T00:35:45.420Z,102001.50
2023-02-11T00:39:46.918Z,101997.09
2023-02-11T00:43:48.915Z,101987.50
2023-02-11T00:47:53.074Z,101987.47
2023-02-11T00:51:55.008Z,101967.34
2023-02-11T00:55:56.798Z,101959.47
2023-02-11T01:00:00.383Z,101947.19
2023-02-11T01:04:01.987Z,101937.56
2023-02-11T01:08:03.755Z,101917.44
2023-02-11T01:12:05.596Z,101919.13
2023-02-11T01:16:08.733Z,101919.97
2023-02-11T01:20:16.755Z,101933.06
2023-02-11T01:24:18.249Z,101930.38
2023-02-11T01:28:23.693Z,101942.56
2023-02-11T01:32:25.414Z,101946.03
2023-02-11T01:36:28.780Z,101946.03
2023-02-11T01:40:30.419Z,101942.50
2023-02-11T01:44:35.178Z,101924.03
2023-02-11T01:48:41.131Z,101934.50
2023-02-11T01:52:46.237Z,101919.53
2023-02-11T01:57:11.618Z,101914.25
2023-02-11T02:01:19.141Z,101906.34
2023-02-11T02:05:47.146Z,101902.81
2023-02-11T02:09:55.947Z,101891.47
2023-02-11T02:13:57.528Z,101895.03
2023-02-11T02:18:14.561Z,101891.47
2023-02-11T02:22:33.671Z,101894.94
2023-02-11T02:26:54.026Z,101897.50
2023-02-11T02:31:23.946Z,101902.78
2023-02-11T02:35:37.180Z,101902.72
2023-02-11T02:39:39.238Z,101876.31
2023-02-11T02:43:44.842Z,101867.47
2023-02-11T02:47:46.317Z,101862.16
2023-02-11T02:52:17.311Z,101858.59
2023-02-11T02:56:45.025Z,101853.22
2023-02-11T03:01:03.827Z,101853.19
2023-02-11T03:05:14.034Z,101851.44
2023-02-11T03:09:31.314Z,101869.84
2023-02-11T03:13:36.640Z,101870.72
2023-02-11T03:17:41.347Z,101876.81
2023-02-11T03:21:44.290Z,101874.06
2023-02-11T03:25:53.169Z,101861.72
2023-02-11T03:30:05.137Z,101840.53
2023-02-11T03:34:12.520Z,101832.56
2023-02-11T03:38:20.522Z,101828.22
2023-02-11T03:42:26.232Z,101824.69
2023-02-11T03:46:32.449Z,101810.69
2023-02-11T03:50:36.318Z,101800.91
2023-02-11T03:54:42.628Z,101798.28
2023-02-11T03:58:44.569Z,101794.75
2023-02-11T04:02:46.203Z,101781.53
2023-02-11T04:06:47.774Z,101791.16
2023-02-11T04:10:49.286Z,101790.22
2023-02-11T04:14:50.702Z,101784.94
2023-02-11T04:18:52.194Z,101784.06
2023-02-11T04:22:53.680Z,101805.13
2023-02-11T04:26:55.592Z,101784.88
2023-02-11T04:30:58.359Z,101796.19
2023-02-11T04:34:59.906Z,101781.28
2023-02-11T04:39:01.574Z,101806.75
2023-02-11T04:43:03.178Z,101811.16
2023-02-11T04:47:04.640Z,101814.63
2023-02-11T04:51:06.334Z,101807.63
2023-02-11T04:55:08.447Z,101813.75
2023-02-11T04:59:10.124Z,101816.38
2023-02-11T05:03:11.765Z,101817.34
2023-02-11T05:07:13.327Z,101826.19
2023-02-11T05:11:20.458Z,101828.88
2023-02-11T05:15:21.974Z,101821.09
2023-02-11T05:19:23.461Z,101831.75
2023-02-11T05:23:25.236Z,101817.88
2023-02-11T05:27:26.808Z,101821.38
2023-02-11T05:31:28.363Z,101811.81
2023-02-11T05:35:29.832Z,101810.84
2023-02-11T05:39:31.362Z,101811.72
2023-02-11T05:43:35.243Z,101801.19
2023-02-11T05:47:36.755Z,101798.66
2023-02-11T05:51:38.221Z,101794.34
2023-02-11T05:55:39.832Z,101802.22
2023-02-11T05:59:41.316Z,101801.28
2023-02-11T06:03:43.118Z,101797.75
2023-02-11T06:07:44.930Z,101794.19
2023-02-11T06:11:46.770Z,101789.88
2023-02-11T06:15:59.448Z,101788.13
2023-02-11T06:20:02.714Z,101795.06
2023-02-11T06:24:04.540Z,101788.13
2023-02-11T06:28:06.444Z,101782.84
2023-02-11T06:32:15.863Z,101779.25
2023-02-11T06:36:25.279Z,101780.97
2023-02-11T06:40:26.991Z,101776.56
2023-02-11T06:44:28.550Z,101766.91
2023-02-11T06:48:29.996Z,101769.41
2023-02-11T06:52:32.746Z,101770.25
2023-02-11T06:56:34.774Z,101763.19
2023-02-11T07:00:37.041Z,101773.56
2023-02-11T07:04:38.625Z,101769.09
2023-02-11T07:08:42.369Z,101758.47
2023-02-11T07:12:44.104Z,101756.78
2023-02-11T07:16:45.600Z,101762.03
2023-02-11T07:20:47.730Z,101762.06
2023-02-11T07:24:49.459Z,101772.50
2023-02-11T07:28:52.194Z,101773.31
2023-02-11T07:32:53.717Z,101779.44
2023-02-11T07:36:55.362Z,101786.47
2023-02-11T07:41:00.785Z,101779.44
2023-02-11T07:45:02.330Z,101774.16
2023-02-11T07:49:03.939Z,101781.09
2023-02-11T07:53:05.529Z,101782.69
2023-02-11T07:57:07.083Z,101788.84
2023-02-11T08:01:25.280Z,101779.19
2023-02-11T08:05:27.186Z,101779.28
2023-02-11T08:09:28.693Z,101772.06
2023-02-11T08:13:30.223Z,101777.19
2023-02-11T08:17:31.738Z,101773.47
2023-02-11T08:21:33.368Z,101781.28
2023-02-11T08:25:34.965Z,101772.59
2023-02-11T08:29:36.462Z,101776.84
2023-02-11T08:33:40.330Z,101777.53
2023-02-11T08:37:42.002Z,101768.97
2023-02-11T08:41:43.753Z,101762.03
2023-02-11T08:45:45.441Z,101770.03
2023-02-11T08:49:46.926Z,101766.47
2023-02-11T08:53:49.518Z,101766.31
2023-02-11T08:57:51.263Z,101770.59
2023-02-11T09:01:52.829Z,101772.94
2023-02-11T09:05:54.710Z,101782.59
2023-02-11T09:09:56.185Z,101788.81
2023-02-11T09:13:58.300Z,101789.47
2023-02-11T09:17:59.860Z,101784.13
2023-02-11T09:22:01.633Z,101777.75
2023-02-11T09:26:24.147Z,101789.94
2023-02-11T09:30:25.902Z,101794.94
2023-02-11T09:34:27.425Z,101802.97
2023-02-11T09:38:29.256Z,101810.38
2023-02-11T09:42:46.068Z,101821.81
2023-02-11T09:46:55.043Z,101805.00
2023-02-11T09:51:00.217Z,101801.72
2023-02-11T09:55:42.736Z,101800.53
2023-02-11T09:59:44.325Z,101800.50
2023-02-11T10:04:16.991Z,101805.03
2023-02-11T10:08:36.235Z,101798.78
2023-02-11T10:12:44.232Z,101793.28
2023-02-11T10:17:05.311Z,101791.94
2023-02-11T10:21:27.123Z,101781.91
2023-02-11T10:25:36.679Z,101787.94
2023-02-11T10:29:52.309Z,101778.28
2023-02-11T10:34:03.783Z,101774.84
2023-02-11T10:38:05.544Z,101773.25
2023-02-11T10:42:12.210Z,101809.09
2023-02-11T10:46:26.597Z,101791.00
2023-02-11T10:50:31.145Z,101782.78
2023-02-11T10:54:32.830Z,101776.94
2023-02-11T10:58:41.165Z,101758.28
2023-02-11T11:02:44.408Z,101754.38
2023-02-11T11:06:46.059Z,101754.28
2023-02-11T11:11:06.217Z,101754.25
2023-02-11T11:15:11.053Z,101760.16
2023-02-11T11:19:13.554Z,101756.47
2023-02-11T11:23:18.893Z,101761.38
2023-02-11T11:27:24.490Z,101747.72
2023-02-11T11:31:49.033Z,101757.66
2023-02-11T11:36:02.746Z,101761.53
2023-02-11T11:40:21.773Z,101752.78
2023-02-11T11:44:32.023Z,101748.41
2023-02-11T11:48:46.432Z,101745.69
2023-02-11T11:52:54.089Z,101756.16
2023-02-11T11:57:05.184Z,101769.41
2023-02-11T12:01:40.083Z,101776.56
2023-02-11T12:06:07.694Z,101765.00
2023-02-11T12:10:22.594Z,101768.31
2023-02-11T12:14:41.156Z,101765.59
2023-02-11T12:19:14.525Z,101759.88
2023-02-11T12:23:37.355Z,101739.00
2023-02-11T12:28:07.350Z,101754.81
2023-02-11T12:32:39.092Z,101757.88
2023-02-11T12:36:54.435Z,101759.84
2023-02-11T12:41:41.699Z,101765.22
2023-02-11T12:46:12.258Z,101771.53
2023-02-11T12:50:34.280Z,101747.00
2023-02-11T12:54:54.076Z,101749.91
2023-02-11T12:58:59.139Z,101760.56
2023-02-11T13:03:11.908Z,101754.63
2023-02-11T13:07:25.225Z,101756.38
2023-02-11T13:11:30.668Z,101740.53
2023-02-11T13:15:33.028Z,101736.81
2023-02-11T13:19:42.581Z,101735.81
2023-02-11T13:24:09.479Z,101713.66
2023-02-11T13:28:19.425Z,101716.44
2023-02-11T13:32:21.139Z,101710.25
2023-02-11T13:36:25.749Z,101718.19
2023-02-11T13:40:35.056Z,101732.22
2023-02-11T13:44:37.557Z,101723.19
2023-02-11T13:48:47.411Z,101714.25
2023-02-11T13:52:57.132Z,101713.31
2023-02-11T13:57:20.588Z,101713.41
2023-02-11T14:02:20.250Z,101711.63
2023-02-11T14:06:43.470Z,101731.78
2023-02-11T14:10:45.498Z,101734.69
2023-02-11T14:15:18.453Z,101733.03
2023-02-11T14:19:31.077Z,101740.94
2023-02-11T14:23:32.946Z,101748.81
2023-02-11T14:27:55.395Z,101737.44
2023-02-11T14:32:27.963Z,101739.16
2023-02-11T14:36:54.921Z,101737.69
2023-02-11T14:41:10.688Z,101750.97
2023-02-11T14:45:20.893Z,101739.31
2023-02-11T14:49:30.857Z,101748.88
2023-02-11T14:53:34.381Z,101737.31
2023-02-11T14:57:37.777Z,101734.63
2023-02-11T15:01:48.739Z,101733.78
2023-02-11T15:05:56.780Z,101741.72
2023-02-11T15:09:58.409Z,101739.06
2023-02-11T15:14:10.390Z,101752.22
2023-02-11T15:18:22.468Z,101743.38
2023-02-11T15:22:27.979Z,101741.69
2023-02-11T15:26:30.164Z,101737.31
2023-02-11T15:30:35.858Z,101743.59
2023-02-11T15:34:37.564Z,101744.31
2023-02-11T15:38:40.746Z,101751.25
2023-02-11T15:43:11.615Z,101752.13
2023-02-11T15:47:19.480Z,101750.25
2023-02-11T15:51:31.103Z,101746.72
2023-02-11T15:55:32.928Z,101759.03
2023-02-11T15:59:47.223Z,101760.91
2023-02-11T16:03:50.627Z,101760.03
2023-02-11T16:07:52.265Z,101760.81
2023-02-11T16:11:58.206Z,101766.25
2023-02-11T16:16:05.058Z,101765.38
2023-02-11T16:20:17.502Z,101776.88
2023-02-11T16:24:21.582Z,101783.16
2023-02-11T16:28:23.353Z,101794.63
2023-02-11T16:32:27.538Z,101797.41
2023-02-11T16:36:29.341Z,101802.06
2023-02-11T16:40:31.025Z,101803.00
2023-02-11T16:44:34.018Z,101803.94
2023-02-11T16:48:35.556Z,101805.94
2023-02-11T16:52:37.826Z,101806.88
2023-02-11T16:56:39.441Z,101797.25
2023-02-11T17:00:41.420Z,101807.88
2023-02-11T17:04:44.173Z,101816.00
2023-02-11T17:08:46.085Z,101807.31
2023-02-11T17:12:48.996Z,101822.38
2023-02-11T17:16:50.675Z,101813.59
2023-02-11T17:20:52.211Z,101818.00
2023-02-11T17:24:55.747Z,101818.00
2023-02-11T17:28:57.233Z,101819.16
2023-02-11T17:32:58.735Z,101842.69
2023-02-11T17:37:01.330Z,101849.72
2023-02-11T17:41:04.727Z,101839.97
2023-02-11T17:45:07.763Z,101845.91
2023-02-11T17:49:11.134Z,101821.28
2023-02-11T17:53:14.641Z,101844.03
2023-02-11T17:57:16.335Z,101843.19
2023-02-11T18:01:18.090Z,101860.84
2023-02-11T18:05:20.266Z,101868.78
2023-02-11T18:09:21.766Z,101863.63
2023-02-11T18:13:23.316Z,101856.88
